Nbp Island — V2FH3 — position and weather

sailwx.info

Track history (hours):
 
Tides and Currents Weather Stations Pressure Air Temp Water Temp Dewpoint Dewpoint Depression Visibility Wind Speed Wind Dir Waves Ship Positions

Nbp Island

Last reported at 2016-Feb-05 18:20 UTC. Time now 2016-Feb-06 03:02 UTC.
Position N 55°38' E 015°26'.

Length 107 m; draft 5.5 m.

Type: Cargo ship. MMSI: 305674000.

Date/timePositionNaut miles runAvg speedWind from/ knotsBaromVisibWave heightAir tempDewpointWater temp
2016-Feb-05 18:20N 55°38' E 015°26'911.0
2016-Feb-05 17:33N 55°34' E 015°12'1111.1
2016-Feb-05 16:33N 55°29' E 014°55'1111.1
2016-Feb-05 15:33N 55°23' E 014°39'1111.2
2016-Feb-05 14:33N 55°15' E 014°25'1110.7
2016-Feb-05 13:33N 55°10' E 014°09'1111.3
2016-Feb-05 12:33N 55°10' E 013°49'1110.9
2016-Feb-05 11:32N 55°12' E 013°30'1111.0
2016-Feb-05 10:31N 55°13' E 013°11'1111.4
2016-Feb-05 09:33N 55°15' E 012°52'9 9.3
2016-Feb-05 08:33N 55°20' E 012°38'1110.5
2016-Feb-05 07:33N 55°31' E 012°42'10 9.7
2016-Feb-05 06:33N 55°40' E 012°41'1010.1
2016-Feb-05 05:33N 55°51' E 012°41'1010.1
2016-Feb-05 04:33N 56°00' E 012°38'9 9.0
2016-Feb-05 03:33N 56°08' E 012°28'1110.8
2016-Feb-05 02:33N 56°14' E 012°13'2110.5
2016-Feb-05 00:33N 56°33' E 011°57'1111.0
2016-Feb-04 23:33N 56°44' E 011°52'9 8.7
2016-Feb-04 22:33N 56°52' E 011°47'1010.5
2016-Feb-04 21:33N 57°02' E 011°40'1110.5
2016-Feb-04 20:33N 57°12' E 011°34'1110.7
2016-Feb-04 19:33N 57°22' E 011°27'1010.4
2016-Feb-04 18:33N 57°32' E 011°23'1111.0
2016-Feb-04 17:33N 57°43' E 011°24'1110.8
2016-Feb-04 16:33N 57°53' E 011°30'1111.2
2016-Feb-04 15:33N 58°01' E 011°46'1110.8
2016-Feb-04 14:33N 58°11' E 011°51'9 7.7
2016-Feb-04 13:20N 58°20' E 011°54'0 0.0
2016-Feb-04 05:18N 58°21' E 011°54'0 0.0
2016-Feb-04 04:27N 58°21' E 011°54'0 0.0
2016-Feb-03 22:18N 58°21' E 011°54'0 0.0
2016-Feb-03 21:33N 58°21' E 011°54'0 0.0
2016-Feb-03 19:18N 58°21' E 011°54'0 0.0
2016-Feb-03 18:27N 58°21' E 011°54'0 0.0
2016-Feb-03 17:30N 58°21' E 011°54'0 0.0
2016-Feb-03 14:09N 58°21' E 011°54'0 0.0
2016-Feb-03 12:18N 58°21' E 011°54'0 0.0
2016-Feb-03 08:27N 58°21' E 011°54'0 0.0
2016-Feb-03 07:30N 58°21' E 011°54'0 0.0
2016-Feb-03 06:33N 58°21' E 011°54'0 0.0
2016-Feb-03 03:21N 58°21' E 011°54'0 0.0
2016-Feb-02 10:30N 58°21' E 011°54'0 0.0
2016-Feb-02 09:30N 58°21' E 011°54'0 0.0
2016-Feb-02 08:24N 58°21' E 011°54'0 0.0
2016-Feb-02 07:12N 58°21' E 011°54'0 0.0
2016-Feb-02 05:27N 58°21' E 011°54'0 0.0
2016-Feb-02 04:09N 58°21' E 011°54'0 0.0
2016-Feb-02 01:27N 58°21' E 011°54'0 0.0
2016-Feb-01 14:12N 58°21' E 011°54'0 0.0
2016-Feb-01 13:30N 58°21' E 011°54'0 0.0
2016-Feb-01 12:33N 58°21' E 011°54'0 0.0
2016-Feb-01 11:09N 58°21' E 011°54'0 0.0
2016-Jan-31 22:09N 58°21' E 011°54'0 0.0
2016-Jan-31 21:33N 58°21' E 011°54'6 5.6
2016-Jan-31 20:30N 58°15' E 011°49'9 9.7
2016-Jan-31 19:33N 58°06' E 011°48'1010.2
2016-Jan-31 18:33N 57°57' E 011°42'10 9.8
2016-Jan-31 17:33N 57°51' E 011°26'1110.9
2016-Jan-31 16:33N 57°45' E 011°09'20 1.5
2016-Jan-31 03:26N 57°37' E 010°35'11 6.1
2016-Jan-31 01:33N 57°47' E 010°44'282 9.4
2016-Jan-29 19:27N 54°23' E 004°55'18 9.2
2016-Jan-29 17:28N 54°07' E 004°41'164 9.7
2016-Jan-29 00:33N 51°42' E 002°32'9 8.8
2016-Jan-28 23:33N 51°35' E 002°22'9 8.8
2016-Jan-28 22:32N 51°29' E 002°13'9 8.7
2016-Jan-28 21:33N 51°21' E 002°07'9 9.0
2016-Jan-28 20:33N 51°13' E 002°00'10 9.7
2016-Jan-28 19:33N 51°08' E 001°48'1010.2
2016-Jan-28 18:33N 51°01' E 001°35'1110.5
2016-Jan-28 17:32N 50°52' E 001°26'  
Track history (hours):
 
Tides and Currents Weather Stations Pressure Air Temp Water Temp Dewpoint Dewpoint Depression Visibility Wind Speed Wind Dir Waves Ship Positions

Nbp Island

Last reported at 2016-Feb-05 18:20 UTC. Time now 2016-Feb-06 03:02 UTC.
Position N 55°38' E 015°26'.

Length 107 m; draft 5.5 m.

Type: Cargo ship. MMSI: 305674000.

Date/timePositionNaut miles runAvg speedWind from/ knotsBaromVisibWave heightAir tempDewpointWater temp
2016-Feb-05 18:20N 55°38' E 015°26'911.0
2016-Feb-05 17:33N 55°34' E 015°12'1111.1
2016-Feb-05 16:33N 55°29' E 014°55'1111.1
2016-Feb-05 15:33N 55°23' E 014°39'1111.2
2016-Feb-05 14:33N 55°15' E 014°25'1110.7
2016-Feb-05 13:33N 55°10' E 014°09'1111.3
2016-Feb-05 12:33N 55°10' E 013°49'1110.9
2016-Feb-05 11:32N 55°12' E 013°30'1111.0
2016-Feb-05 10:31N 55°13' E 013°11'1111.4
2016-Feb-05 09:33N 55°15' E 012°52'9 9.3
2016-Feb-05 08:33N 55°20' E 012°38'1110.5
2016-Feb-05 07:33N 55°31' E 012°42'10 9.7
2016-Feb-05 06:33N 55°40' E 012°41'1010.1
2016-Feb-05 05:33N 55°51' E 012°41'1010.1
2016-Feb-05 04:33N 56°00' E 012°38'9 9.0
2016-Feb-05 03:33N 56°08' E 012°28'1110.8
2016-Feb-05 02:33N 56°14' E 012°13'2110.5
2016-Feb-05 00:33N 56°33' E 011°57'1111.0
2016-Feb-04 23:33N 56°44' E 011°52'9 8.7
2016-Feb-04 22:33N 56°52' E 011°47'1010.5
2016-Feb-04 21:33N 57°02' E 011°40'1110.5
2016-Feb-04 20:33N 57°12' E 011°34'1110.7
2016-Feb-04 19:33N 57°22' E 011°27'1010.4
2016-Feb-04 18:33N 57°32' E 011°23'1111.0
2016-Feb-04 17:33N 57°43' E 011°24'1110.8
2016-Feb-04 16:33N 57°53' E 011°30'1111.2
2016-Feb-04 15:33N 58°01' E 011°46'1110.8
2016-Feb-04 14:33N 58°11' E 011°51'9 7.7
2016-Feb-04 13:20N 58°20' E 011°54'0 0.0
2016-Feb-04 05:18N 58°21' E 011°54'0 0.0
2016-Feb-04 04:27N 58°21' E 011°54'0 0.0
2016-Feb-03 22:18N 58°21' E 011°54'0 0.0
2016-Feb-03 21:33N 58°21' E 011°54'0 0.0
2016-Feb-03 19:18N 58°21' E 011°54'0 0.0
2016-Feb-03 18:27N 58°21' E 011°54'0 0.0
2016-Feb-03 17:30N 58°21' E 011°54'0 0.0
2016-Feb-03 14:09N 58°21' E 011°54'0 0.0
2016-Feb-03 12:18N 58°21' E 011°54'0 0.0
2016-Feb-03 08:27N 58°21' E 011°54'0 0.0
2016-Feb-03 07:30N 58°21' E 011°54'0 0.0
2016-Feb-03 06:33N 58°21' E 011°54'0 0.0
2016-Feb-03 03:21N 58°21' E 011°54'0 0.0
2016-Feb-02 10:30N 58°21' E 011°54'0 0.0
2016-Feb-02 09:30N 58°21' E 011°54'0 0.0
2016-Feb-02 08:24N 58°21' E 011°54'0 0.0
2016-Feb-02 07:12N 58°21' E 011°54'0 0.0
2016-Feb-02 05:27N 58°21' E 011°54'0 0.0
2016-Feb-02 04:09N 58°21' E 011°54'0 0.0
2016-Feb-02 01:27N 58°21' E 011°54'0 0.0
2016-Feb-01 14:12N 58°21' E 011°54'0 0.0
2016-Feb-01 13:30N 58°21' E 011°54'0 0.0
2016-Feb-01 12:33N 58°21' E 011°54'0 0.0
2016-Feb-01 11:09N 58°21' E 011°54'0 0.0
2016-Jan-31 22:09N 58°21' E 011°54'0 0.0
2016-Jan-31 21:33N 58°21' E 011°54'6 5.6
2016-Jan-31 20:30N 58°15' E 011°49'9 9.7
2016-Jan-31 19:33N 58°06' E 011°48'1010.2
2016-Jan-31 18:33N 57°57' E 011°42'10 9.8
2016-Jan-31 17:33N 57°51' E 011°26'1110.9
2016-Jan-31 16:33N 57°45' E 011°09'20 1.5
2016-Jan-31 03:26N 57°37' E 010°35'11 6.1
2016-Jan-31 01:33N 57°47' E 010°44'282 9.4
2016-Jan-29 19:27N 54°23' E 004°55'18 9.2
2016-Jan-29 17:28N 54°07' E 004°41'164 9.7
2016-Jan-29 00:33N 51°42' E 002°32'9 8.8
2016-Jan-28 23:33N 51°35' E 002°22'9 8.8
2016-Jan-28 22:32N 51°29' E 002°13'9 8.7
2016-Jan-28 21:33N 51°21' E 002°07'9 9.0
2016-Jan-28 20:33N 51°13' E 002°00'10 9.7
2016-Jan-28 19:33N 51°08' E 001°48'1010.2
2016-Jan-28 18:33N 51°01' E 001°35'1110.5
2016-Jan-28 17:32N 50°52' E 001°26'  

Dump ship's entire track history